This is the latest recevied weather packets stored in our database for station/object KB1PVH-13. If no packets are shown the sender has not sent any weather packets the latest 10 day(s).
| Time | Temp. | Humidity | Pressure | Rain* | Wind** | Luminosity | Snow |
|---|---|---|---|---|---|---|---|
| 1777924517 | 22.78° C | 28% | 923.9 hPa | 0 mm | - | - | - |
| 1777920917 | 22.22° C | 29% | 924.1 hPa | 0 mm | - | - | - |
| 1777920316 | 22.22° C | 27% | 924.1 hPa | 0 mm | - | - | - |
| 1777910137 | 20° C | 31% | 925.7 hPa | 0 mm | - | - | - |
| 1777909517 | 19.44° C | 31% | 925.8 hPa | 0 mm | - | - | - |
| 1777908917 | 19.44° C | 31% | 926 hPa | 0 mm | - | - | - |
| 1777905317 | 18.33° C | 38% | 926.2 hPa | 0 mm | - | - | - |
| 1777904717 | 18.33° C | 34% | 926.3 hPa | 0 mm | - | - | - |
| 1777903518 | 17.78° C | 37% | 926.4 hPa | 0 mm | - | - | - |
| 1777899318 | 14.44° C | 44% | 927.3 hPa | 0 mm | - | - | - |
| 1777898117 | 13.33° C | 47% | 927.4 hPa | 0 mm | - | - | - |
| 1777890918 | 6.11° C | 66% | 927.2 hPa | 0 mm | - | - | - |
| 1777883716 | 5.56° C | 64% | 926.8 hPa | 0 mm | - | - | - |
| 1777879516 | 5.56° C | 72% | 926.8 hPa | 0 mm | - | - | - |
| 1777878338 | 5.56° C | 72% | 926.6 hPa | 0 mm | - | - | - |
| 1777875317 | 5° C | 73% | 926.9 hPa | 0 mm | - | - | - |
| 1777874716 | 4.44° C | 72% | 926.9 hPa | 0 mm | - | - | - |
| 1777871716 | 5° C | 71% | 927 hPa | 0 mm | - | - | - |
| 1777869316 | 4.44° C | 73% | 927 hPa | 0 mm | - | - | - |
| 1777865116 | 3.89° C | 72% | 926.5 hPa | 0 mm | - | - | - |
| 1777857916 | 5° C | 64% | 925.9 hPa | 0 mm | - | - | - |
| 1777852556 | 8.89° C | 42% | 925 hPa | 0 mm | - | - | - |
| 1777847715 | 11.11° C | 37% | 924.1 hPa | 0 mm | - | - | - |
| 1777845315 | 11.67° C | 35% | 923.8 hPa | 0 mm | - | - | - |
| 1777835717 | 12.22° C | 40% | 922.6 hPa | 0 mm | - | - | - |
* Rain latest hour (hover to see other rain measurements)
** Current wind speed in m/s (hover to see current wind gust speed)